sensor_id;sensor_type;location;lat;lon;timestamp;pressure;altitude;pressure_sealevel;temperature;humidity
40872;BME280;26591;43.264;26.940;2023-11-18T00:00:36;97991.88;;;9.42;87.06
40872;BME280;26591;43.264;26.940;2023-11-18T00:03:01;97983.94;;;9.57;86.76
40872;BME280;26591;43.264;26.940;2023-11-18T00:05:27;97988.63;;;9.25;87.08
40872;BME280;26591;43.264;26.940;2023-11-18T00:07:52;97990.66;;;9.23;86.90
40872;BME280;26591;43.264;26.940;2023-11-18T00:10:18;97980.81;;;9.32;87.34
40872;BME280;26591;43.264;26.940;2023-11-18T00:12:43;97983.59;;;9.30;87.16
40872;BME280;26591;43.264;26.940;2023-11-18T00:15:09;97975.69;;;9.30;87.21
40872;BME280;26591;43.264;26.940;2023-11-18T00:17:37;97973.25;;;9.29;86.81
40872;BME280;26591;43.264;26.940;2023-11-18T00:20:03;97961.59;;;9.23;87.22
40872;BME280;26591;43.264;26.940;2023-11-18T00:22:33;97960.13;;;9.36;86.85
40872;BME280;26591;43.264;26.940;2023-11-18T00:24:59;97955.13;;;9.41;86.63
40872;BME280;26591;43.264;26.940;2023-11-18T00:27:27;97962.84;;;9.42;85.64
40872;BME280;26591;43.264;26.940;2023-11-18T00:29:52;97958.28;;;9.36;85.68
40872;BME280;26591;43.264;26.940;2023-11-18T00:32:18;97962.66;;;9.44;85.65
40872;BME280;26591;43.264;26.940;2023-11-18T00:34:44;97966.44;;;9.56;84.82
40872;BME280;26591;43.264;26.940;2023-11-18T00:37:10;97965.72;;;9.62;84.59
40872;BME280;26591;43.264;26.940;2023-11-18T00:39:35;97965.69;;;9.41;84.36
40872;BME280;26591;43.264;26.940;2023-11-18T00:42:02;97970.34;;;9.60;84.02
40872;BME280;26591;43.264;26.940;2023-11-18T00:44:28;97963.91;;;9.48;83.72
40872;BME280;26591;43.264;26.940;2023-11-18T00:46:53;97960.56;;;9.54;84.08
40872;BME280;26591;43.264;26.940;2023-11-18T00:49:19;97958.50;;;9.56;83.84
40872;BME280;26591;43.264;26.940;2023-11-18T00:51:44;97951.06;;;9.45;83.88
40872;BME280;26591;43.264;26.940;2023-11-18T00:54:10;97951.78;;;9.54;84.25
40872;BME280;26591;43.264;26.940;2023-11-18T00:56:36;97964.72;;;9.49;84.24
40872;BME280;26591;43.264;26.940;2023-11-18T00:59:02;97975.25;;;9.27;84.59
40872;BME280;26591;43.264;26.940;2023-11-18T01:01:28;97974.97;;;9.37;84.98
40872;BME280;26591;43.264;26.940;2023-11-18T01:03:53;97971.81;;;9.26;84.65
40872;BME280;26591;43.264;26.940;2023-11-18T01:06:19;97961.31;;;9.18;85.02
40872;BME280;26591;43.264;26.940;2023-11-18T01:08:48;97965.03;;;9.24;85.69
40872;BME280;26591;43.264;26.940;2023-11-18T01:11:16;97961.59;;;9.23;85.74
40872;BME280;26591;43.264;26.940;2023-11-18T01:13:45;97952.84;;;9.23;85.34
40872;BME280;26591;43.264;26.940;2023-11-18T01:16:11;97947.38;;;9.39;84.68
40872;BME280;26591;43.264;26.940;2023-11-18T01:18:38;97946.91;;;9.36;84.35
40872;BME280;26591;43.264;26.940;2023-11-18T01:21:04;97947.50;;;9.53;84.42
40872;BME280;26591;43.264;26.940;2023-11-18T01:23:30;97956.56;;;9.43;84.54
40872;BME280;26591;43.264;26.940;2023-11-18T01:25:55;97956.84;;;9.34;84.47
40872;BME280;26591;43.264;26.940;2023-11-18T01:28:24;97963.00;;;9.04;85.15
40872;BME280;26591;43.264;26.940;2023-11-18T01:30:51;97964.44;;;9.07;85.67
40872;BME280;26591;43.264;26.940;2023-11-18T01:33:17;97945.75;;;9.08;85.97
40872;BME280;26591;43.264;26.940;2023-11-18T01:35:43;97958.50;;;9.05;85.87
40872;BME280;26591;43.264;26.940;2023-11-18T01:38:09;97960.88;;;8.99;86.51
40872;BME280;26591;43.264;26.940;2023-11-18T01:40:34;97955.34;;;8.94;86.25
40872;BME280;26591;43.264;26.940;2023-11-18T01:43:00;97958.78;;;8.95;86.49
40872;BME280;26591;43.264;26.940;2023-11-18T01:45:25;97950.03;;;9.09;86.04
40872;BME280;26591;43.264;26.940;2023-11-18T01:47:52;97947.75;;;9.06;86.50
40872;BME280;26591;43.264;26.940;2023-11-18T01:50:18;97951.50;;;8.97;86.78
40872;BME280;26591;43.264;26.940;2023-11-18T01:52:45;97951.25;;;9.07;86.10
40872;BME280;26591;43.264;26.940;2023-11-18T01:55:11;97953.22;;;8.90;86.18
40872;BME280;26591;43.264;26.940;2023-11-18T01:57:38;97948.59;;;8.77;86.37
40872;BME280;26591;43.264;26.940;2023-11-18T02:00:09;97938.59;;;9.02;85.50
40872;BME280;26591;43.264;26.940;2023-11-18T02:02:36;97936.13;;;9.00;85.61
40872;BME280;26591;43.264;26.940;2023-11-18T02:05:04;97938.97;;;8.99;85.04
40872;BME280;26591;43.264;26.940;2023-11-18T02:07:33;97946.78;;;8.92;85.28
40872;BME280;26591;43.264;26.940;2023-11-18T02:09:59;97952.44;;;9.04;84.66
40872;BME280;26591;43.264;26.940;2023-11-18T02:12:41;97944.31;;;9.06;84.48
40872;BME280;26591;43.264;26.940;2023-11-18T02:15:10;97958.97;;;9.08;84.92
40872;BME280;26591;43.264;26.940;2023-11-18T02:17:38;97955.25;;;9.18;84.15
40872;BME280;26591;43.264;26.940;2023-11-18T02:20:08;97949.97;;;8.88;85.10
40872;BME280;26591;43.264;26.940;2023-11-18T02:22:42;97955.69;;;8.91;84.71
40872;BME280;26591;43.264;26.940;2023-11-18T02:25:09;97950.31;;;8.69;85.29
40872;BME280;26591;43.264;26.940;2023-11-18T02:27:36;97932.38;;;8.50;86.38
40872;BME280;26591;43.264;26.940;2023-11-18T02:30:02;97936.94;;;8.56;86.40
40872;BME280;26591;43.264;26.940;2023-11-18T02:32:39;97926.03;;;8.89;85.70
40872;BME280;26591;43.264;26.940;2023-11-18T02:37:40;97936.84;;;9.09;84.75
40872;BME280;26591;43.264;26.940;2023-11-18T02:40:11;97914.03;;;8.87;84.68
40872;BME280;26591;43.264;26.940;2023-11-18T02:42:41;97915.06;;;8.47;85.81
40872;BME280;26591;43.264;26.940;2023-11-18T02:45:09;97933.28;;;8.57;85.69
40872;BME280;26591;43.264;26.940;2023-11-18T02:47:38;97934.94;;;8.58;86.13
40872;BME280;26591;43.264;26.940;2023-11-18T02:50:05;97948.50;;;8.85;85.15
40872;BME280;26591;43.264;26.940;2023-11-18T02:52:38;97942.66;;;8.90;84.71
40872;BME280;26591;43.264;26.940;2023-11-18T02:55:07;97967.13;;;8.68;85.09
40872;BME280;26591;43.264;26.940;2023-11-18T02:57:37;97968.78;;;8.84;85.22
40872;BME280;26591;43.264;26.940;2023-11-18T03:00:07;97991.50;;;8.55;85.49
40872;BME280;26591;43.264;26.940;2023-11-18T03:02:37;97993.19;;;8.48;86.31
40872;BME280;26591;43.264;26.940;2023-11-18T03:05:06;97995.28;;;8.53;85.87
40872;BME280;26591;43.264;26.940;2023-11-18T03:10:41;97992.41;;;8.39;87.13
40872;BME280;26591;43.264;26.940;2023-11-18T03:13:10;97984.47;;;8.24;86.76
40872;BME280;26591;43.264;26.940;2023-11-18T03:15:35;97980.84;;;8.02;87.31
40872;BME280;26591;43.264;26.940;2023-11-18T03:18:01;97984.44;;;7.86;86.86
40872;BME280;26591;43.264;26.940;2023-11-18T03:20:30;97987.66;;;7.97;87.25
40872;BME280;26591;43.264;26.940;2023-11-18T03:22:55;97986.19;;;7.94;86.74
40872;BME280;26591;43.264;26.940;2023-11-18T03:25:25;97977.69;;;7.84;86.54
40872;BME280;26591;43.264;26.940;2023-11-18T03:27:50;97970.50;;;7.77;86.51
40872;BME280;26591;43.264;26.940;2023-11-18T03:30:16;97972.41;;;7.84;86.56
40872;BME280;26591;43.264;26.940;2023-11-18T03:32:42;97968.22;;;7.66;87.19
40872;BME280;26591;43.264;26.940;2023-11-18T03:35:08;97964.91;;;7.72;86.90
40872;BME280;26591;43.264;26.940;2023-11-18T03:37:40;97960.00;;;7.92;86.23
40872;BME280;26591;43.264;26.940;2023-11-18T03:42:33;97971.06;;;8.11;85.22
40872;BME280;26591;43.264;26.940;2023-11-18T03:44:58;97934.94;;;7.73;85.43
40872;BME280;26591;43.264;26.940;2023-11-18T03:47:23;97946.16;;;7.67;84.95
40872;BME280;26591;43.264;26.940;2023-11-18T03:49:50;97955.66;;;7.53;85.75
40872;BME280;26591;43.264;26.940;2023-11-18T03:52:16;97936.34;;;7.61;85.58
40872;BME280;26591;43.264;26.940;2023-11-18T03:54:41;97933.63;;;7.77;84.90
40872;BME280;26591;43.264;26.940;2023-11-18T03:57:07;97938.16;;;7.84;84.31
40872;BME280;26591;43.264;26.940;2023-11-18T03:59:35;97925.88;;;7.76;85.20
40872;BME280;26591;43.264;26.940;2023-11-18T04:02:04;97927.63;;;7.60;84.62
40872;BME280;26591;43.264;26.940;2023-11-18T04:04:29;97918.31;;;7.50;85.06
40872;BME280;26591;43.264;26.940;2023-11-18T04:06:55;97914.94;;;7.64;84.46
40872;BME280;26591;43.264;26.940;2023-11-18T04:09:21;97910.78;;;7.70;84.33
40872;BME280;26591;43.264;26.940;2023-11-18T04:11:46;97907.66;;;7.66;84.05
40872;BME280;26591;43.264;26.940;2023-11-18T04:14:12;97907.63;;;7.74;84.20
40872;BME280;26591;43.264;26.940;2023-11-18T04:16:40;97890.59;;;7.62;84.75
40872;BME280;26591;43.264;26.940;2023-11-18T04:19:05;97905.50;;;7.46;85.31
40872;BME280;26591;43.264;26.940;2023-11-18T04:21:31;97915.69;;;7.50;86.05
40872;BME280;26591;43.264;26.940;2023-11-18T04:23:57;97898.00;;;7.58;86.22
40872;BME280;26591;43.264;26.940;2023-11-18T04:26:22;97893.16;;;7.70;86.00
40872;BME280;26591;43.264;26.940;2023-11-18T04:28:49;97892.84;;;7.65;85.95
40872;BME280;26591;43.264;26.940;2023-11-18T04:31:15;97895.66;;;7.63;85.74
40872;BME280;26591;43.264;26.940;2023-11-18T04:33:40;97888.47;;;7.57;86.32
40872;BME280;26591;43.264;26.940;2023-11-18T04:36:07;97897.16;;;7.35;86.32
40872;BME280;26591;43.264;26.940;2023-11-18T04:38:35;97866.72;;;7.09;86.91
40872;BME280;26591;43.264;26.940;2023-11-18T04:41:01;97876.66;;;7.30;87.46
40872;BME280;26591;43.264;26.940;2023-11-18T04:43:29;97871.25;;;7.23;87.61
40872;BME280;26591;43.264;26.940;2023-11-18T04:45:55;97877.16;;;7.25;87.63
40872;BME280;26591;43.264;26.940;2023-11-18T04:48:21;97888.72;;;7.16;88.24
40872;BME280;26591;43.264;26.940;2023-11-18T04:50:47;97900.25;;;7.46;87.01
40872;BME280;26591;43.264;26.940;2023-11-18T04:53:12;97894.13;;;7.46;86.84
40872;BME280;26591;43.264;26.940;2023-11-18T04:55:38;97891.38;;;7.39;86.84
40872;BME280;26591;43.264;26.940;2023-11-18T04:58:04;97883.94;;;7.43;86.73
40872;BME280;26591;43.264;26.940;2023-11-18T05:01:05;97903.03;;;7.13;87.57
40872;BME280;26591;43.264;26.940;2023-11-18T05:03:30;97909.47;;;7.11;87.59
40872;BME280;26591;43.264;26.940;2023-11-18T05:05:56;97894.22;;;7.29;86.63
40872;BME280;26591;43.264;26.940;2023-11-18T05:08:21;97888.38;;;7.19;86.06
40872;BME280;26591;43.264;26.940;2023-11-18T05:10:48;97893.13;;;7.24;86.17
40872;BME280;26591;43.264;26.940;2023-11-18T05:13:14;97898.31;;;7.09;85.77
40872;BME280;26591;43.264;26.940;2023-11-18T05:15:43;97896.59;;;6.84;87.16
40872;BME280;26591;43.264;26.940;2023-11-18T05:18:11;97892.13;;;6.85;86.12
40872;BME280;26591;43.264;26.940;2023-11-18T05:20:39;97892.44;;;6.98;85.63
40872;BME280;26591;43.264;26.940;2023-11-18T05:23:05;97896.53;;;6.93;85.77
40872;BME280;26591;43.264;26.940;2023-11-18T05:25:32;97886.06;;;7.24;84.45
40872;BME280;26591;43.264;26.940;2023-11-18T05:28:04;97904.38;;;7.09;84.62
40872;BME280;26591;43.264;26.940;2023-11-18T05:30:30;97905.97;;;7.18;83.76
40872;BME280;26591;43.264;26.940;2023-11-18T05:32:57;97914.81;;;7.26;83.88
40872;BME280;26591;43.264;26.940;2023-11-18T05:35:23;97913.91;;;7.10;83.33
40872;BME280;26591;43.264;26.940;2023-11-18T05:37:54;97909.44;;;7.19;83.29
40872;BME280;26591;43.264;26.940;2023-11-18T05:40:19;97920.13;;;7.17;82.83
40872;BME280;26591;43.264;26.940;2023-11-18T05:42:45;97928.63;;;7.28;82.85
40872;BME280;26591;43.264;26.940;2023-11-18T05:45:13;97925.28;;;7.02;83.10
40872;BME280;26591;43.264;26.940;2023-11-18T05:47:54;97924.94;;;7.06;82.97
40872;BME280;26591;43.264;26.940;2023-11-18T05:50:20;97906.00;;;7.10;82.36
40872;BME280;26591;43.264;26.940;2023-11-18T05:52:45;97909.53;;;6.94;82.95
40872;BME280;26591;43.264;26.940;2023-11-18T05:55:11;97911.59;;;7.07;82.44
40872;BME280;26591;43.264;26.940;2023-11-18T05:57:36;97923.41;;;7.20;81.64
40872;BME280;26591;43.264;26.940;2023-11-18T06:00:02;97940.16;;;7.27;81.23
40872;BME280;26591;43.264;26.940;2023-11-18T06:02:30;97950.34;;;7.22;81.19
40872;BME280;26591;43.264;26.940;2023-11-18T06:04:56;97933.69;;;6.98;81.79
40872;BME280;26591;43.264;26.940;2023-11-18T06:07:22;97924.81;;;6.99;81.12
40872;BME280;26591;43.264;26.940;2023-11-18T06:09:57;97925.03;;;7.21;80.63
40872;BME280;26591;43.264;26.940;2023-11-18T06:12:23;97921.28;;;6.67;81.30
40872;BME280;26591;43.264;26.940;2023-11-18T06:14:48;97926.28;;;6.45;81.93
40872;BME280;26591;43.264;26.940;2023-11-18T06:17:16;97925.25;;;6.63;81.46
40872;BME280;26591;43.264;26.940;2023-11-18T06:19:44;97939.06;;;6.48;81.38
40872;BME280;26591;43.264;26.940;2023-11-18T06:22:10;97946.81;;;6.50;81.48
40872;BME280;26591;43.264;26.940;2023-11-18T06:24:36;97947.63;;;6.34;80.75
40872;BME280;26591;43.264;26.940;2023-11-18T06:27:04;97944.75;;;7.25;83.09
40872;BME280;26591;43.264;26.940;2023-11-18T06:29:30;97942.38;;;7.07;80.99
40872;BME280;26591;43.264;26.940;2023-11-18T06:31:56;97940.63;;;7.62;81.95
40872;BME280;26591;43.264;26.940;2023-11-18T06:34:21;97941.63;;;8.46;82.38
40872;BME280;26591;43.264;26.940;2023-11-18T06:36:47;97916.38;;;7.43;75.92
40872;BME280;26591;43.264;26.940;2023-11-18T06:39:13;97917.56;;;7.01;76.35
40872;BME280;26591;43.264;26.940;2023-11-18T06:41:38;97910.25;;;6.80;77.83
40872;BME280;26591;43.264;26.940;2023-11-18T06:44:15;97919.19;;;6.54;77.96
40872;BME280;26591;43.264;26.940;2023-11-18T06:46:43;97912.16;;;7.34;81.91
40872;BME280;26591;43.264;26.940;2023-11-18T06:49:10;97905.47;;;7.23;77.43
40872;BME280;26591;43.264;26.940;2023-11-18T06:51:41;97906.34;;;7.07;75.73
40872;BME280;26591;43.264;26.940;2023-11-18T06:54:07;97894.34;;;6.73;75.61
40872;BME280;26591;43.264;26.940;2023-11-18T06:56:37;97870.31;;;6.20;76.58
40872;BME280;26591;43.264;26.940;2023-11-18T06:59:04;97876.84;;;5.99;77.48
40872;BME280;26591;43.264;26.940;2023-11-18T07:01:30;97893.16;;;6.03;77.83
40872;BME280;26591;43.264;26.940;2023-11-18T07:03:58;97899.19;;;5.78;77.92
40872;BME280;26591;43.264;26.940;2023-11-18T07:06:24;97910.53;;;6.04;77.33
40872;BME280;26591;43.264;26.940;2023-11-18T07:08:52;97895.56;;;5.88;77.60
40872;BME280;26591;43.264;26.940;2023-11-18T07:11:18;97882.09;;;5.83;77.89
40872;BME280;26591;43.264;26.940;2023-11-18T07:13:46;97869.97;;;5.73;77.14
40872;BME280;26591;43.264;26.940;2023-11-18T07:16:13;97853.91;;;5.76;77.35
40872;BME280;26591;43.264;26.940;2023-11-18T07:18:40;97859.97;;;5.52;77.18
40872;BME280;26591;43.264;26.940;2023-11-18T07:21:06;97860.94;;;5.51;77.40
40872;BME280;26591;43.264;26.940;2023-11-18T07:23:41;97836.69;;;5.57;76.91
40872;BME280;26591;43.264;26.940;2023-11-18T07:26:08;97856.34;;;5.37;76.72
40872;BME280;26591;43.264;26.940;2023-11-18T07:28:35;97869.63;;;5.52;76.89
40872;BME280;26591;43.264;26.940;2023-11-18T07:31:01;97880.31;;;5.91;77.58
40872;BME280;26591;43.264;26.940;2023-11-18T07:33:30;97881.97;;;6.09;76.90
40872;BME280;26591;43.264;26.940;2023-11-18T07:35:59;97882.66;;;6.03;75.27
40872;BME280;26591;43.264;26.940;2023-11-18T07:38:25;97878.81;;;6.38;74.98
40872;BME280;26591;43.264;26.940;2023-11-18T07:40:52;97871.31;;;5.94;74.25
40872;BME280;26591;43.264;26.940;2023-11-18T07:43:22;97866.72;;;5.79;74.22
40872;BME280;26591;43.264;26.940;2023-11-18T07:45:48;97859.63;;;5.96;74.20
40872;BME280;26591;43.264;26.940;2023-11-18T07:48:18;97871.13;;;5.79;73.69
40872;BME280;26591;43.264;26.940;2023-11-18T07:50:46;97863.75;;;5.66;74.24
40872;BME280;26591;43.264;26.940;2023-11-18T07:53:13;97871.78;;;5.73;73.96
40872;BME280;26591;43.264;26.940;2023-11-18T07:55:39;97883.25;;;5.63;74.09
40872;BME280;26591;43.264;26.940;2023-11-18T07:58:09;97900.34;;;5.68;73.92
40872;BME280;26591;43.264;26.940;2023-11-18T08:00:38;97927.25;;;5.94;73.00
40872;BME280;26591;43.264;26.940;2023-11-18T08:03:05;97933.97;;;5.89;73.87
40872;BME280;26591;43.264;26.940;2023-11-18T08:05:36;97906.56;;;5.83;73.27
40872;BME280;26591;43.264;26.940;2023-11-18T08:08:02;97904.59;;;5.69;73.54
40872;BME280;26591;43.264;26.940;2023-11-18T08:10:28;97906.72;;;5.81;72.90
40872;BME280;26591;43.264;26.940;2023-11-18T08:12:58;97892.63;;;5.74;73.47
40872;BME280;26591;43.264;26.940;2023-11-18T08:15:24;97859.66;;;5.72;73.03
40872;BME280;26591;43.264;26.940;2023-11-18T08:17:52;97865.72;;;5.80;72.75
40872;BME280;26591;43.264;26.940;2023-11-18T08:20:18;97891.97;;;5.89;72.55
40872;BME280;26591;43.264;26.940;2023-11-18T08:22:46;97868.81;;;5.59;72.67
40872;BME280;26591;43.264;26.940;2023-11-18T08:25:12;97885.56;;;5.58;73.36
40872;BME280;26591;43.264;26.940;2023-11-18T08:27:41;97895.38;;;5.48;73.02
40872;BME280;26591;43.264;26.940;2023-11-18T08:30:08;97884.88;;;5.40;73.62
40872;BME280;26591;43.264;26.940;2023-11-18T08:32:41;97887.50;;;5.40;74.37
40872;BME280;26591;43.264;26.940;2023-11-18T08:35:09;97893.59;;;5.81;73.21
40872;BME280;26591;43.264;26.940;2023-11-18T08:37:36;97890.47;;;5.78;73.11
40872;BME280;26591;43.264;26.940;2023-11-18T08:40:05;97868.81;;;5.68;73.82
40872;BME280;26591;43.264;26.940;2023-11-18T08:42:50;97881.63;;;5.71;73.86
40872;BME280;26591;43.264;26.940;2023-11-18T08:45:16;97891.47;;;5.93;73.71
40872;BME280;26591;43.264;26.940;2023-11-18T08:47:43;97912.53;;;6.02;73.76
40872;BME280;26591;43.264;26.940;2023-11-18T08:50:10;97906.72;;;5.98;73.10
40872;BME280;26591;43.264;26.940;2023-11-18T08:52:38;97898.69;;;5.83;73.05
40872;BME280;26591;43.264;26.940;2023-11-18T08:55:10;97909.06;;;5.93;73.43
40872;BME280;26591;43.264;26.940;2023-11-18T08:57:49;97916.09;;;5.84;73.86
40872;BME280;26591;43.264;26.940;2023-11-18T09:00:24;97929.84;;;5.61;73.61
40872;BME280;26591;43.264;26.940;2023-11-18T09:03:08;97948.03;;;5.46;73.78
40872;BME280;26591;43.264;26.940;2023-11-18T09:05:35;97946.91;;;5.57;74.29
40872;BME280;26591;43.264;26.940;2023-11-18T09:08:02;97946.06;;;5.57;74.04
40872;BME280;26591;43.264;26.940;2023-11-18T09:10:31;97937.06;;;5.51;74.19
40872;BME280;26591;43.264;26.940;2023-11-18T09:12:56;97899.47;;;5.42;74.05
40872;BME280;26591;43.264;26.940;2023-11-18T09:15:22;97897.84;;;5.49;74.00
40872;BME280;26591;43.264;26.940;2023-11-18T09:17:48;97895.53;;;5.55;74.20
40872;BME280;26591;43.264;26.940;2023-11-18T09:20:14;97877.97;;;5.47;74.52
40872;BME280;26591;43.264;26.940;2023-11-18T09:22:46;97873.06;;;5.60;74.12
40872;BME280;26591;43.264;26.940;2023-11-18T09:25:11;97858.94;;;5.45;73.81
40872;BME280;26591;43.264;26.940;2023-11-18T09:27:37;97885.84;;;5.39;74.50
40872;BME280;26591;43.264;26.940;2023-11-18T09:30:05;97870.47;;;5.44;74.75
40872;BME280;26591;43.264;26.940;2023-11-18T09:32:42;97869.16;;;5.56;74.48
40872;BME280;26591;43.264;26.940;2023-11-18T09:35:08;97864.22;;;5.61;74.35
40872;BME280;26591;43.264;26.940;2023-11-18T09:37:35;97858.00;;;5.54;73.94
40872;BME280;26591;43.264;26.940;2023-11-18T09:40:03;97855.19;;;5.39;74.66
40872;BME280;26591;43.264;26.940;2023-11-18T09:42:40;97849.97;;;5.64;74.55
40872;BME280;26591;43.264;26.940;2023-11-18T09:45:11;97841.75;;;5.67;73.75
40872;BME280;26591;43.264;26.940;2023-11-18T09:47:42;97812.88;;;5.59;73.37
40872;BME280;26591;43.264;26.940;2023-11-18T09:50:10;97797.81;;;5.36;74.29
40872;BME280;26591;43.264;26.940;2023-11-18T09:52:42;97804.50;;;5.47;74.02
40872;BME280;26591;43.264;26.940;2023-11-18T09:55:38;97785.00;;;5.49;74.04
40872;BME280;26591;43.264;26.940;2023-11-18T09:58:15;97776.00;;;5.44;74.24
40872;BME280;26591;43.264;26.940;2023-11-18T10:00:41;97797.00;;;5.44;74.36
40872;BME280;26591;43.264;26.940;2023-11-18T10:03:08;97788.94;;;5.54;73.75
40872;BME280;26591;43.264;26.940;2023-11-18T10:05:36;97776.97;;;5.43;74.38
40872;BME280;26591;43.264;26.940;2023-11-18T10:08:03;97788.75;;;5.63;73.88
40872;BME280;26591;43.264;26.940;2023-11-18T10:10:31;97773.84;;;5.56;73.74
40872;BME280;26591;43.264;26.940;2023-11-18T10:13:03;97769.25;;;5.66;73.79
40872;BME280;26591;43.264;26.940;2023-11-18T10:15:33;97763.50;;;5.62;73.20
40872;BME280;26591;43.264;26.940;2023-11-18T10:18:00;97734.94;;;5.59;73.60
40872;BME280;26591;43.264;26.940;2023-11-18T10:23:59;97737.44;;;5.61;73.10
40872;BME280;26591;43.264;26.940;2023-11-18T10:26:27;97728.91;;;5.50;73.46
40872;BME280;26591;43.264;26.940;2023-11-18T10:28:54;97720.88;;;5.35;73.30
40872;BME280;26591;43.264;26.940;2023-11-18T10:31:20;97706.13;;;5.43;73.11
40872;BME280;26591;43.264;26.940;2023-11-18T10:33:46;97722.69;;;5.43;73.92
40872;BME280;26591;43.264;26.940;2023-11-18T10:36:21;97719.19;;;5.59;73.61
40872;BME280;26591;43.264;26.940;2023-11-18T10:38:49;97700.38;;;5.47;73.76
40872;BME280;26591;43.264;26.940;2023-11-18T10:41:21;97704.75;;;5.72;73.69
40872;BME280;26591;43.264;26.940;2023-11-18T10:43:46;97676.09;;;5.45;73.02
40872;BME280;26591;43.264;26.940;2023-11-18T10:46:16;97692.03;;;5.44;73.60
40872;BME280;26591;43.264;26.940;2023-11-18T10:48:48;97687.09;;;5.49;73.75
40872;BME280;26591;43.264;26.940;2023-11-18T10:51:35;97700.97;;;5.74;72.94
40872;BME280;26591;43.264;26.940;2023-11-18T10:54:04;97702.44;;;5.77;72.97
40872;BME280;26591;43.264;26.940;2023-11-18T10:56:30;97699.34;;;5.73;72.84
40872;BME280;26591;43.264;26.940;2023-11-18T10:59:06;97691.00;;;5.61;73.15
40872;BME280;26591;43.264;26.940;2023-11-18T11:01:34;97704.25;;;5.76;73.11
40872;BME280;26591;43.264;26.940;2023-11-18T11:04:04;97693.97;;;5.58;73.48
40872;BME280;26591;43.264;26.940;2023-11-18T11:06:32;97721.00;;;5.75;73.35
40872;BME280;26591;43.264;26.940;2023-11-18T11:08:58;97703.75;;;5.81;73.49
40872;BME280;26591;43.264;26.940;2023-11-18T11:11:26;97733.91;;;5.93;72.98
40872;BME280;26591;43.264;26.940;2023-11-18T11:13:56;97737.22;;;5.87;73.49
40872;BME280;26591;43.264;26.940;2023-11-18T11:16:24;97741.81;;;5.85;73.49
40872;BME280;26591;43.264;26.940;2023-11-18T11:18:55;97738.22;;;5.86;74.25
40872;BME280;26591;43.264;26.940;2023-11-18T11:21:28;97733.94;;;5.85;73.75
40872;BME280;26591;43.264;26.940;2023-11-18T11:24:11;97745.88;;;5.96;73.91
40872;BME280;26591;43.264;26.940;2023-11-18T11:26:56;97734.78;;;5.77;74.42
40872;BME280;26591;43.264;26.940;2023-11-18T11:29:41;97740.47;;;5.89;74.35
40872;BME280;26591;43.264;26.940;2023-11-18T11:32:25;97747.72;;;5.87;74.67
40872;BME280;26591;43.264;26.940;2023-11-18T11:35:00;97719.50;;;5.81;74.61
40872;BME280;26591;43.264;26.940;2023-11-18T11:37:32;97738.22;;;5.61;75.82
40872;BME280;26591;43.264;26.940;2023-11-18T11:40:00;97748.75;;;5.45;77.47
40872;BME280;26591;43.264;26.940;2023-11-18T11:42:33;97748.09;;;5.34;79.04
40872;BME280;26591;43.264;26.940;2023-11-18T11:45:00;97731.56;;;5.34;79.48
40872;BME280;26591;43.264;26.940;2023-11-18T11:47:28;97722.69;;;5.18;80.52
40872;BME280;26591;43.264;26.940;2023-11-18T11:50:19;97733.00;;;5.20;80.36
40872;BME280;26591;43.264;26.940;2023-11-18T11:53:02;97723.53;;;5.11;80.85
40872;BME280;26591;43.264;26.940;2023-11-18T11:55:46;97722.84;;;5.00;80.94
40872;BME280;26591;43.264;26.940;2023-11-18T11:58:28;97746.13;;;4.95;81.10
40872;BME280;26591;43.264;26.940;2023-11-18T12:01:01;97729.38;;;4.88;81.71
40872;BME280;26591;43.264;26.940;2023-11-18T12:03:38;97737.59;;;4.85;82.66
40872;BME280;26591;43.264;26.940;2023-11-18T12:06:04;97750.22;;;5.06;82.28
40872;BME280;26591;43.264;26.940;2023-11-18T12:08:35;97757.25;;;4.89;82.74
40872;BME280;26591;43.264;26.940;2023-11-18T12:11:02;97737.09;;;4.89;83.27
40872;BME280;26591;43.264;26.940;2023-11-18T12:19:41;97759.19;;;4.79;84.41
40872;BME280;26591;43.264;26.940;2023-11-18T12:22:22;97752.94;;;4.71;84.75
40872;BME280;26591;43.264;26.940;2023-11-18T12:27:42;97738.03;;;4.72;84.64
40872;BME280;26591;43.264;26.940;2023-11-18T12:35:30;97731.50;;;4.84;84.78
40872;BME280;26591;43.264;26.940;2023-11-18T12:38:30;97732.81;;;4.72;85.46
40872;BME280;26591;43.264;26.940;2023-11-18T12:46:53;97745.19;;;4.53;85.67
40872;BME280;26591;43.264;26.940;2023-11-18T12:49:22;97743.41;;;4.54;86.94
40872;BME280;26591;43.264;26.940;2023-11-18T12:51:53;97722.94;;;4.66;86.89
40872;BME280;26591;43.264;26.940;2023-11-18T12:54:20;97729.50;;;4.62;87.10
40872;BME280;26591;43.264;26.940;2023-11-18T12:56:47;97740.81;;;4.62;86.97
40872;BME280;26591;43.264;26.940;2023-11-18T12:59:19;97754.59;;;4.72;86.58
40872;BME280;26591;43.264;26.940;2023-11-18T13:01:52;97748.53;;;4.80;86.80
40872;BME280;26591;43.264;26.940;2023-11-18T13:04:32;97742.94;;;4.67;86.81
40872;BME280;26591;43.264;26.940;2023-11-18T13:07:00;97752.13;;;4.63;86.71
40872;BME280;26591;43.264;26.940;2023-11-18T13:09:27;97764.75;;;4.67;87.16
40872;BME280;26591;43.264;26.940;2023-11-18T13:11:58;97756.34;;;4.64;86.56
40872;BME280;26591;43.264;26.940;2023-11-18T13:14:25;97758.19;;;4.71;87.11
40872;BME280;26591;43.264;26.940;2023-11-18T13:16:53;97764.44;;;4.79;87.05
40872;BME280;26591;43.264;26.940;2023-11-18T13:19:28;97775.72;;;4.79;86.75
40872;BME280;26591;43.264;26.940;2023-11-18T13:21:57;97785.09;;;4.82;86.67
40872;BME280;26591;43.264;26.940;2023-11-18T13:24:27;97783.78;;;4.86;86.64
40872;BME280;26591;43.264;26.940;2023-11-18T13:26:56;97798.22;;;4.90;86.69
40872;BME280;26591;43.264;26.940;2023-11-18T13:29:23;97774.25;;;4.77;86.48
40872;BME280;26591;43.264;26.940;2023-11-18T13:31:51;97776.56;;;4.88;87.13
40872;BME280;26591;43.264;26.940;2023-11-18T13:34:18;97798.22;;;4.90;87.18
40872;BME280;26591;43.264;26.940;2023-11-18T13:36:43;97812.78;;;4.93;87.02
40872;BME280;26591;43.264;26.940;2023-11-18T13:39:16;97808.22;;;4.95;86.75